< < Back
Terminal Aerodrome Forecast


Current Version              Previous Versions:   1  2  3  4  5  6  7  8  9  

Terminal Aerodrome Forecast

824
FTUS44 KOHX 280521
TAFBNA
TAF
KBNA 280521Z 2806/2906 VRB05KT P6SM SKC
     FM281600 16009KT P6SM SCT050=



Latest METAR

271
SAUS70 KWBC 281700 RRD
MTRBNA
METAR KBNA 281653Z 16008KT 10SM FEW050 29/17 A3013 RMK AO2 SLP197
T02940172


USA.gov is the U.S. government's official web portal to all federal, state and local government web resources and services.